Time;durP1;ratioP1;P1;durP2;ratioP2;P2;SDS_P1;SDS_P2;PMS_P1;PMS_P2;Temp;Humidity;BMP_temperature;BMP_pressure;BME280_temperature;BME280_humidity;BME280_pressure;Samples;Min_cycle;Max_cycle;Signal;HPM_P1;HPM_P2
2022/05/07 00:02:19;;;;;;;17.10;9.57;;;;;;;17.77;68.69;98382.44;5459590;26;20396;-76
2022/05/07 00:04:46;;;;;;;19.67;10.57;;;;;;;17.41;70.39;98383.03;5460151;26;20082;-76
2022/05/07 00:07:13;;;;;;;14.90;9.38;;;;;;;17.54;70.20;98379.50;5459987;26;20408;-77
2022/05/07 00:09:40;;;;;;;16.58;10.80;;;;;;;17.50;69.91;98387.66;5435238;26;20463;-77
2022/05/07 00:12:08;;;;;;;17.23;9.80;;;;;;;17.49;70.23;98391.19;5437092;26;20110;-76
2022/05/07 00:14:36;;;;;;;18.48;11.32;;;;;;;17.15;71.41;98390.78;5436801;26;20106;-77
2022/05/07 00:19:49;;;;;;;18.55;11.07;;;;;;;16.00;78.41;98389.16;5436856;26;20061;-76
2022/05/07 00:22:16;;;;;;;19.35;11.77;;;;;;;16.49;76.49;98387.06;5436365;26;20323;-76
2022/05/07 00:24:43;;;;;;;17.77;11.40;;;;;;;16.80;75.49;98385.19;5436784;26;20311;-76
2022/05/07 00:27:13;;;;;;;18.05;11.45;;;;;;;16.31;78.23;98379.53;5436810;26;20133;-76
2022/05/07 00:29:40;;;;;;;18.92;11.85;;;;;;;16.35;79.04;98384.44;5436245;26;20061;-77
2022/05/07 00:32:08;;;;;;;19.10;11.45;;;;;;;16.01;80.87;98382.19;5436746;26;20409;-76
2022/05/07 00:34:35;;;;;;;20.25;11.85;;;;;;;15.76;82.89;98375.00;5436725;26;20059;-76
2022/05/07 00:37:03;;;;;;;19.87;12.10;;;;;;;16.10;81.44;98377.28;5436243;26;20362;-77
2022/05/07 00:39:30;;;;;;;19.90;13.32;;;;;;;16.04;82.44;98382.00;5436717;26;20046;-76
2022/05/07 00:42:01;;;;;;;20.20;13.70;;;;;;;15.55;84.28;98372.69;5437002;26;20200;-76
2022/05/07 00:44:28;;;;;;;19.77;12.70;;;;;;;16.23;81.29;98374.75;5437528;26;20091;-77
2022/05/07 00:47:14;;;;;;;21.05;13.23;;;;;;;15.89;82.38;98376.78;5437778;26;20047;-76
2022/05/07 00:49:42;;;;;;;21.80;13.15;;;;;;;15.81;82.96;98372.94;5437446;26;20051;-77
2022/05/07 00:52:09;;;;;;;19.45;13.05;;;;;;;16.15;81.91;98372.63;5437739;26;20511;-76
2022/05/07 00:54:37;;;;;;;18.95;12.52;;;;;;;16.17;82.21;98378.59;5436363;26;20207;-76
2022/05/07 00:57:04;;;;;;;21.35;12.93;;;;;;;16.09;81.85;98370.41;5437243;26;20102;-77
2022/05/07 00:59:31;;;;;;;20.77;12.95;;;;;;;16.31;80.81;98367.34;5437703;26;20357;-76
2022/05/07 01:01:58;;;;;;;20.92;12.02;;;;;;;16.24;81.38;98373.84;5437702;26;20464;-76
2022/05/07 01:04:25;;;;;;;19.73;13.27;;;;;;;16.13;82.42;98369.28;5437226;26;20051;-77
2022/05/07 01:06:53;;;;;;;22.35;14.63;;;;;;;16.20;81.92;98364.53;5437695;26;20419;-76
2022/05/07 01:09:20;;;;;;;20.12;13.85;;;;;;;16.44;80.76;98365.66;5439082;26;20130;-76
2022/05/07 01:11:47;;;;;;;21.00;13.05;;;;;;;16.94;78.55;98363.47;5460485;26;20530;-77
2022/05/07 01:14:14;;;;;;;19.60;12.60;;;;;;;17.11;77.56;98370.19;5460865;26;20135;-76
2022/05/07 01:16:41;;;;;;;19.85;13.62;;;;;;;17.37;76.26;98368.53;5460849;26;20084;-76
2022/05/07 01:19:09;;;;;;;20.15;13.07;;;;;;;16.83;77.93;98363.31;5460157;26;20046;-76
2022/05/07 01:21:35;;;;;;;22.27;13.82;;;;;;;17.23;76.34;98364.22;5460951;26;20093;-76
2022/05/07 01:24:04;;;;;;;21.23;13.70;;;;;;;17.23;76.34;98366.81;5460594;26;20073;-76
2022/05/07 01:26:31;;;;;;;20.83;13.20;;;;;;;17.77;73.89;98365.00;5460321;26;20109;-77
2022/05/07 01:28:59;;;;;;;20.40;12.88;;;;;;;17.94;73.63;98371.66;5460458;26;20089;-76
2022/05/07 01:31:27;;;;;;;19.37;12.65;;;;;;;17.91;73.96;98382.31;5460600;26;20085;-77
2022/05/07 01:33:55;;;;;;;22.05;13.48;;;;;;;17.49;76.01;98378.97;5460672;26;20058;-76
2022/05/07 01:36:22;;;;;;;21.40;14.10;;;;;;;17.60;75.12;98378.28;5460886;26;20122;-76
2022/05/07 01:38:49;;;;;;;21.20;13.98;;;;;;;16.98;77.83;98370.97;5460006;26;20113;-77
2022/05/07 01:41:16;;;;;;;22.23;15.13;;;;;;;17.05;77.71;98364.44;5460888;26;20054;-76
2022/05/07 01:43:43;;;;;;;23.80;15.27;;;;;;;16.56;80.53;98371.03;5460580;26;20521;-76
2022/05/07 01:48:56;;;;;;;22.50;14.80;;;;;;;15.74;85.84;98367.28;5460517;26;20094;-77
2022/05/07 01:51:23;;;;;;;25.45;15.70;;;;;;;15.87;86.06;98362.19;5460771;26;20118;-76
2022/05/07 01:53:50;;;;;;;23.90;15.07;;;;;;;15.57;86.94;98360.44;5460211;26;20085;-76
2022/05/07 01:56:17;;;;;;;23.90;15.88;;;;;;;15.52;87.22;98354.63;5460636;26;20142;-76
2022/05/07 01:58:45;;;;;;;27.58;16.17;;;;;;;15.49;87.73;98357.41;5460323;26;20109;-76
2022/05/07 02:01:12;;;;;;;24.85;16.75;;;;;;;15.36;88.41;98355.63;5460413;26;20106;-76
2022/05/07 02:03:40;;;;;;;25.30;16.48;;;;;;;15.02;90.65;98354.94;5460521;26;20063;-76
2022/05/07 02:06:07;;;;;;;27.95;16.52;;;;;;;14.92;90.65;98357.19;5460688;26;20109;-76
2022/05/07 02:08:33;;;;;;;24.10;14.07;;;;;;;15.12;89.89;98355.25;5460024;26;20047;-76
2022/05/07 02:11:01;;;;;;;26.70;15.85;;;;;;;14.87;91.07;98358.38;5460177;26;20118;-76
2022/05/07 02:13:28;;;;;;;24.45;15.55;;;;;;;14.96;91.22;98350.06;5460640;26;20069;-76
2022/05/07 02:15:55;;;;;;;25.08;14.98;;;;;;;14.87;91.23;98358.38;5460286;26;20106;-76
2022/05/07 02:18:22;;;;;;;24.55;16.30;;;;;;;14.69;92.76;98355.88;5460321;26;20046;-76
2022/05/07 02:20:49;;;;;;;23.52;14.80;;;;;;;14.66;92.24;98349.97;5460158;26;20063;-77
2022/05/07 02:23:17;;;;;;;22.40;14.27;;;;;;;14.49;93.04;98361.31;5460431;26;20400;-76
2022/05/07 02:25:44;;;;;;;25.08;15.27;;;;;;;14.55;93.27;98357.53;5460528;26;20114;-76
2022/05/07 02:28:11;;;;;;;23.35;14.20;;;;;;;14.47;93.13;98357.94;5460047;26;20113;-76
2022/05/07 02:30:38;;;;;;;27.02;14.35;;;;;;;14.37;93.74;98360.16;5460473;26;20133;-76
2022/05/07 02:33:05;;;;;;;25.02;14.68;;;;;;;14.37;93.48;98347.19;5439967;26;20078;-76
2022/05/07 02:35:32;;;;;;;21.87;13.15;;;;;;;14.28;93.59;98354.63;5460145;26;20758;-76
2022/05/07 02:37:59;;;;;;;24.37;14.40;;;;;;;14.35;93.42;98354.19;5460409;26;20423;-76
2022/05/07 02:40:26;;;;;;;21.70;14.38;;;;;;;14.51;92.49;98359.44;5460370;26;20067;-76
2022/05/07 02:42:53;;;;;;;22.33;13.43;;;;;;;14.52;92.10;98358.53;5460016;26;20129;-76
2022/05/07 02:45:20;;;;;;;24.20;14.73;;;;;;;14.41;92.12;98355.63;5460510;26;20393;-76
2022/05/07 02:47:47;;;;;;;24.05;14.25;;;;;;;14.41;92.20;98353.88;5460335;26;20042;-76
2022/05/07 02:50:14;;;;;;;23.65;14.32;;;;;;;14.46;91.60;98356.25;5459979;26;20059;-76
2022/05/07 02:52:41;;;;;;;24.73;14.13;;;;;;;14.59;91.38;98356.44;5460501;26;20071;-76
2022/05/07 02:55:09;;;;;;;24.83;15.07;;;;;;;14.62;91.58;98364.91;5460462;26;20547;-76
2022/05/07 02:57:37;;;;;;;25.15;15.82;;;;;;;14.88;91.10;98365.22;5459946;26;20471;-76
2022/05/07 03:00:05;;;;;;;23.33;15.38;;;;;;;15.15;89.58;98361.09;5460282;26;20067;-76
2022/05/07 03:02:32;;;;;;;23.17;14.30;;;;;;;15.25;89.34;98369.22;5440029;26;20110;-76
2022/05/07 03:04:59;;;;;;;24.15;14.82;;;;;;;15.49;87.48;98364.38;5459704;26;20063;-76
2022/05/07 03:07:26;;;;;;;23.48;15.27;;;;;;;14.97;90.40;98365.56;5460571;26;20043;-76
2022/05/07 03:09:53;;;;;;;24.48;15.25;;;;;;;14.99;89.70;98371.53;5459721;26;20114;-77
2022/05/07 03:12:20;;;;;;;23.15;14.85;;;;;;;15.24;88.67;98373.59;5460481;26;20058;-76
2022/05/07 03:14:47;;;;;;;22.67;13.90;;;;;;;15.47;87.13;98371.44;5439982;26;20118;-76
2022/05/07 03:17:14;;;;;;;21.83;13.73;;;;;;;15.67;85.54;98376.38;5459845;26;20478;-76
2022/05/07 03:19:41;;;;;;;22.17;14.13;;;;;;;15.96;84.04;98376.44;5460239;26;20415;-76
2022/05/07 03:22:08;;;;;;;21.17;13.07;;;;;;;15.48;86.32;98373.12;5460297;26;20077;-76
2022/05/07 03:24:38;;;;;;;18.98;12.32;;;;;;;15.23;86.48;98369.31;5459854;26;20051;-76
2022/05/07 03:27:06;;;;;;;23.65;12.70;;;;;;;15.58;84.70;98369.91;5460314;26;20117;-76
2022/05/07 03:29:33;;;;;;;21.70;13.38;;;;;;;15.46;84.78;98381.00;5460164;26;20113;-76
2022/05/07 03:32:00;;;;;;;21.02;12.45;;;;;;;15.07;86.31;98375.44;5459881;26;20472;-76
2022/05/07 03:34:27;;;;;;;20.92;12.75;;;;;;;15.05;87.37;98375.53;5460380;26;20057;-76
2022/05/07 03:36:53;;;;;;;20.65;13.45;;;;;;;15.21;86.40;98381.56;5460265;26;20335;-76
2022/05/07 03:39:20;;;;;;;20.83;11.07;;;;;;;14.56;88.45;98367.81;5459690;26;20122;-76
2022/05/07 03:41:49;;;;;;;20.42;11.38;;;;;;;14.48;86.46;98377.81;5460499;26;20524;-76
2022/05/07 03:44:15;;;;;;;21.23;11.25;;;;;;;14.06;87.74;98373.06;5460248;26;20126;-76
2022/05/07 03:46:42;;;;;;;20.17;10.30;;;;;;;14.07;87.80;98374.75;5459733;26;20089;-76
2022/05/07 03:49:09;;;;;;;20.33;11.23;;;;;;;14.31;85.49;98377.81;5459939;26;20059;-76
2022/05/07 03:54:22;;;;;;;19.30;10.82;;;;;;;14.77;83.77;98384.00;5460406;26;20075;-76
2022/05/07 03:56:48;;;;;;;20.90;10.88;;;;;;;14.73;84.49;98380.75;5460207;26;20432;-76
2022/05/07 03:59:15;;;;;;;17.80;10.45;;;;;;;14.84;84.88;98390.56;5459389;26;20369;-77
2022/05/07 04:01:42;;;;;;;18.30;10.73;;;;;;;14.89;83.76;98382.53;5460240;26;20081;-76
2022/05/07 04:04:09;;;;;;;19.25;10.93;;;;;;;14.91;84.28;98381.50;5460129;26;20388;-76
2022/05/07 04:06:36;;;;;;;17.67;10.68;;;;;;;14.75;85.72;98381.50;5459729;26;20046;-76
2022/05/07 04:09:03;;;;;;;18.55;11.25;;;;;;;14.61;85.86;98375.38;5459877;26;20118;-76
2022/05/07 04:11:31;;;;;;;20.30;10.65;;;;;;;14.72;85.38;98380.84;5459806;26;20114;-76
2022/05/07 04:13:58;;;;;;;22.98;11.07;;;;;;;14.54;85.92;98387.00;5459605;26;20134;-76
2022/05/07 04:16:25;;;;;;;18.12;10.63;;;;;;;14.70;87.34;98386.13;5460585;26;20400;-76
2022/05/07 04:18:55;;;;;;;18.85;10.77;;;;;;;14.20;88.77;98386.16;5460796;26;20063;-75
2022/05/07 04:21:22;;;;;;;18.33;10.27;;;;;;;14.60;87.13;98382.34;5440038;26;20069;-75
2022/05/07 04:23:50;;;;;;;18.80;10.13;;;;;;;14.45;87.04;98391.75;5460817;26;20062;-76
2022/05/07 04:26:17;;;;;;;17.33;9.35;;;;;;;14.26;86.34;98387.59;5460990;26;20125;-76
2022/05/07 04:28:44;;;;;;;17.17;9.50;;;;;;;14.49;84.90;98397.66;5460255;26;20114;-76
2022/05/07 04:31:11;;;;;;;18.60;9.95;;;;;;;14.18;84.78;98375.84;5461064;26;20083;-76
2022/05/07 04:33:38;;;;;;;17.05;9.40;;;;;;;14.49;83.66;98394.22;5440430;26;20122;-76
2022/05/07 04:36:05;;;;;;;14.93;7.80;;;;;;;14.77;81.50;98384.84;5460630;26;20658;-76
2022/05/07 04:38:32;;;;;;;15.95;9.38;;;;;;;14.41;83.71;98390.22;5460844;26;20469;-76
2022/05/07 04:40:58;;;;;;;17.23;9.82;;;;;;;14.20;85.21;98391.34;5460567;26;20074;-77
2022/05/07 04:43:25;;;;;;;19.83;9.77;;;;;;;14.72;83.63;98393.81;5460878;26;20105;-76
2022/05/07 04:45:52;;;;;;;17.85;9.60;;;;;;;14.65;83.69;98403.69;5460910;26;20125;-76
2022/05/07 04:48:23;;;;;;;15.77;9.25;;;;;;;14.60;83.83;98404.88;5460548;26;20055;-77
2022/05/07 04:50:50;;;;;;;18.17;10.00;;;;;;;14.74;82.16;98408.37;5460853;26;20063;-76
2022/05/07 04:53:17;;;;;;;15.77;8.90;;;;;;;14.79;82.24;98409.91;5460874;26;20117;-76
2022/05/07 04:55:44;;;;;;;17.08;8.82;;;;;;;14.73;82.02;98405.88;5460482;26;20081;-76
2022/05/07 04:58:11;;;;;;;17.35;9.38;;;;;;;14.62;83.10;98416.00;5460645;26;20130;-76
2022/05/07 05:00:37;;;;;;;18.83;9.73;;;;;;;14.80;84.02;98409.84;5440284;26;20571;-76
2022/05/07 05:03:04;;;;;;;16.00;8.70;;;;;;;14.29;86.04;98411.62;5460521;26;20468;-76
2022/05/07 05:05:31;;;;;;;14.98;8.48;;;;;;;14.54;85.46;98410.38;5460796;26;20071;-76
2022/05/07 05:07:58;;;;;;;15.45;8.88;;;;;;;14.44;85.43;98410.84;5460724;26;20431;-76
2022/05/07 05:10:26;;;;;;;18.77;8.93;;;;;;;14.31;86.96;98407.19;5460034;26;20059;-76
2022/05/07 05:12:53;;;;;;;16.80;8.82;;;;;;;14.40;87.03;98414.50;5460843;26;20787;-76
2022/05/07 05:15:20;;;;;;;18.12;8.82;;;;;;;14.23;87.81;98411.94;5460819;26;20418;-76
2022/05/07 05:17:47;;;;;;;16.17;8.73;;;;;;;14.46;87.39;98408.16;5460297;26;20444;-76
2022/05/07 05:20:15;;;;;;;17.27;8.68;;;;;;;14.24;89.08;98410.19;5460684;26;20059;-76
2022/05/07 05:22:48;;;;;;;16.25;9.43;;;;;;;14.58;87.33;98411.91;5460862;26;20081;-76
2022/05/07 05:25:16;;;;;;;15.65;8.70;;;;;;;14.84;87.00;98413.09;5439775;26;20404;-76
2022/05/07 05:27:43;;;;;;;18.30;10.48;;;;;;;14.66;87.41;98414.91;5460374;26;20089;-76
2022/05/07 05:30:11;;;;;;;16.73;9.77;;;;;;;14.70;87.70;98417.28;5460229;26;20055;-76
2022/05/07 05:32:38;;;;;;;17.40;9.63;;;;;;;14.88;87.79;98414.59;5460841;26;20110;-76
2022/05/07 05:35:05;;;;;;;18.50;11.23;;;;;;;14.84;88.23;98413.94;5460839;26;20053;-76
2022/05/07 05:37:32;;;;;;;21.60;10.45;;;;;;;14.89;88.63;98408.50;5460189;26;20077;-77
2022/05/07 05:39:59;;;;;;;18.10;10.52;;;;;;;14.99;88.18;98417.44;5460556;26;20074;-76
2022/05/07 05:42:27;;;;;;;21.10;12.20;;;;;;;14.86;89.26;98419.03;5460742;26;20043;-76
2022/05/07 05:44:54;;;;;;;20.10;11.10;;;;;;;14.99;89.27;98418.31;5460173;26;20046;-76
2022/05/07 05:47:21;;;;;;;19.58;11.68;;;;;;;15.19;88.47;98418.94;5460609;26;20078;-76
2022/05/07 05:49:48;;;;;;;19.05;11.82;;;;;;;15.37;87.11;98424.91;5440127;26;20106;-76
2022/05/07 05:52:15;;;;;;;20.98;10.77;;;;;;;15.50;86.71;98424.09;5460204;26;20106;-76
2022/05/07 05:54:42;;;;;;;19.27;10.73;;;;;;;15.68;84.87;98430.06;5460726;26;20097;-76
2022/05/07 05:57:13;;;;;;;19.40;11.57;;;;;;;15.61;84.85;98432.16;5461155;26;20107;-76
2022/05/07 05:59:40;;;;;;;18.65;11.55;;;;;;;15.67;85.19;98425.78;5460341;26;20129;-76
2022/05/07 06:02:07;;;;;;;23.77;11.27;;;;;;;15.87;83.96;98432.44;5460673;26;20408;-76
2022/05/07 06:04:34;;;;;;;16.87;10.10;;;;;;;16.18;82.37;98427.12;5460482;26;20062;-76
2022/05/07 06:07:01;;;;;;;19.30;11.57;;;;;;;16.10;82.28;98424.13;5460179;26;20059;-76
2022/05/07 06:09:28;;;;;;;17.12;10.88;;;;;;;16.52;81.75;98437.28;5460459;26;20078;-76
2022/05/07 06:11:57;;;;;;;20.42;11.60;;;;;;;16.23;80.58;98432.03;5460476;26;20106;-76
2022/05/07 06:14:24;;;;;;;18.65;11.43;;;;;;;16.54;79.40;98441.47;5460121;26;20097;-76
2022/05/07 06:16:50;;;;;;;16.30;10.20;;;;;;;16.81;78.99;98430.31;5460596;26;20131;-76
2022/05/07 06:19:18;;;;;;;19.05;9.50;;;;;;;16.49;79.55;98428.72;5459995;26;20069;-77
2022/05/07 06:21:45;;;;;;;17.10;8.85;;;;;;;16.63;79.01;98432.25;5460688;26;20106;-76
2022/05/07 06:29:43;;;;;;;15.73;9.75;;;;;;;16.67;77.33;98431.13;5460525;26;20110;-76
2022/05/07 06:32:10;;;;;;;15.65;8.95;;;;;;;16.54;76.00;98435.41;5460639;26;20046;-76
2022/05/07 06:34:37;;;;;;;15.80;8.45;;;;;;;16.23;76.37;98434.66;5460136;26;20067;-77
2022/05/07 06:37:04;;;;;;;14.82;8.57;;;;;;;16.20;76.94;98432.22;5460513;26;20118;-76
2022/05/07 06:39:31;;;;;;;15.65;8.52;;;;;;;16.60;77.29;98433.28;5459838;26;20459;-76
2022/05/07 06:41:58;;;;;;;15.63;8.25;;;;;;;16.39;75.43;98429.38;5460138;26;20130;-76
2022/05/07 06:44:25;;;;;;;16.42;8.82;;;;;;;16.54;75.91;98431.03;5460380;26;20203;-76
2022/05/07 06:46:53;;;;;;;17.00;8.75;;;;;;;16.65;75.77;98433.00;5460510;26;20075;-76
2022/05/07 06:49:19;;;;;;;12.60;7.85;;;;;;;16.64;76.63;98436.53;5459895;26;20117;-77
2022/05/07 06:51:46;;;;;;;17.65;8.13;;;;;;;16.70;74.48;98431.81;5460581;26;20377;-76
2022/05/07 06:54:13;;;;;;;15.27;8.77;;;;;;;16.68;75.59;98435.44;5460267;26;20145;-78
2022/05/07 06:56:41;;;;;;;15.40;8.23;;;;;;;16.80;73.02;98439.91;5440074;26;20125;-76
2022/05/07 06:59:11;;;;;;;29.08;9.23;;;;;;;16.52;73.70;98439.88;5460163;26;20069;-76
2022/05/07 07:01:38;;;;;;;14.95;8.00;;;;;;;16.78;73.86;98437.38;5460257;26;20066;-77
2022/05/07 07:04:05;;;;;;;14.63;8.48;;;;;;;16.64;73.94;98434.75;5460305;26;20053;-76
2022/05/07 07:06:32;;;;;;;17.17;8.50;;;;;;;16.93;72.42;98439.97;5460526;26;20079;-76
2022/05/07 07:09:00;;;;;;;16.25;8.68;;;;;;;16.92;72.90;98433.09;5459831;26;20113;-77
2022/05/07 07:11:26;;;;;;;14.82;8.82;;;;;;;17.03;73.81;98436.72;5460320;26;20353;-76
2022/05/07 07:13:53;;;;;;;15.55;8.85;;;;;;;17.22;71.89;98441.56;5460366;26;20052;-76
2022/05/07 07:16:20;;;;;;;16.05;8.68;;;;;;;17.05;74.83;98440.06;5460000;26;20062;-77
2022/05/07 07:18:47;;;;;;;15.70;8.48;;;;;;;17.05;73.16;98434.00;5460092;26;20063;-76
2022/05/07 07:21:14;;;;;;;15.02;8.77;;;;;;;17.03;71.71;98441.91;5460578;26;20047;-76
2022/05/07 07:23:41;;;;;;;15.95;8.30;;;;;;;17.19;72.66;98449.59;5460019;26;20092;-77
2022/05/07 07:26:08;;;;;;;16.33;8.30;;;;;;;17.19;72.96;98448.75;5460230;26;20430;-76
2022/05/07 07:28:36;;;;;;;15.35;9.45;;;;;;;17.56;70.47;98447.25;5460226;26;20077;-76
2022/05/07 07:31:03;;;;;;;15.48;7.55;;;;;;;17.64;70.17;98450.19;5459868;26;20057;-77
2022/05/07 07:33:31;;;;;;;16.58;9.25;;;;;;;17.57;71.57;98455.00;5460342;26;20042;-76
2022/05/07 07:35:57;;;;;;;15.85;8.07;;;;;;;17.64;72.12;98469.28;5460365;26;20122;-76
2022/05/07 07:38:26;;;;;;;13.82;7.62;;;;;;;17.80;68.52;98466.56;5459786;26;20063;-77
2022/05/07 07:40:53;;;;;;;16.98;8.90;;;;;;;17.67;69.86;98462.22;5460286;26;20206;-76
2022/05/07 07:43:20;;;;;;;13.77;7.47;;;;;;;17.85;69.54;98466.25;5459951;26;20535;-78
2022/05/07 07:48:33;;;;;;;16.48;10.13;;;;;;;17.91;70.20;98465.88;5460327;26;20125;-77
2022/05/07 07:51:00;;;;;;;21.33;9.82;;;;;;;18.06;71.32;98457.00;5459499;26;20432;-77
2022/05/07 07:53:27;;;;;;;16.65;9.75;;;;;;;17.98;69.16;98461.09;5460174;26;20118;-77
2022/05/07 07:55:54;;;;;;;15.05;8.85;;;;;;;18.16;68.67;98462.44;5460138;26;20115;-76
2022/05/07 07:58:21;;;;;;;17.40;9.32;;;;;;;18.39;67.86;98455.66;5459677;26;20089;-77
2022/05/07 08:00:48;;;;;;;15.98;8.20;;;;;;;18.49;67.64;98461.94;5460167;26;20058;-77
2022/05/07 08:03:17;;;;;;;17.42;9.55;;;;;;;18.74;66.87;98463.75;5439521;26;20050;-77
2022/05/07 08:05:47;;;;;;;14.63;8.80;;;;;;;18.83;66.70;98460.50;5459775;26;20102;-77
2022/05/07 08:13:47;;;;;;;16.50;8.27;;;;;;;18.54;66.27;98466.88;5459859;26;20073;-77
2022/05/07 08:16:17;;;;;;;17.33;8.23;;;;;;;18.61;64.46;98465.50;5460217;26;20063;-77
2022/05/07 08:18:45;;;;;;;17.00;7.70;;;;;;;18.72;65.02;98473.50;5439488;26;20067;-77
2022/05/07 08:21:12;;;;;;;18.67;7.57;;;;;;;19.10;64.37;98475.19;5460179;26;20074;-77
2022/05/07 08:23:40;;;;;;;15.85;7.87;;;;;;;19.07;62.44;98479.69;5460059;26;20053;-77
2022/05/07 08:26:08;;;;;;;13.95;7.53;;;;;;;19.11;64.02;98485.53;5459659;26;20118;-77
2022/05/07 08:28:37;;;;;;;13.45;7.35;;;;;;;19.17;63.03;98473.81;5459926;26;20075;-77
2022/05/07 08:31:04;;;;;;;12.95;7.65;;;;;;;19.03;65.20;98485.22;5460036;26;20056;-77
2022/05/07 08:33:32;;;;;;;13.70;7.68;;;;;;;19.10;64.06;98481.25;5439038;26;20053;-77
2022/05/07 08:36:00;;;;;;;15.27;8.15;;;;;;;19.06;63.79;98480.66;5439542;26;20075;-77
2022/05/07 08:38:27;;;;;;;16.02;8.18;;;;;;;19.24;63.24;98473.25;5459783;26;20070;-77
2022/05/07 08:40:54;;;;;;;14.05;7.90;;;;;;;19.10;63.83;98475.19;5459773;26;20148;-77
2022/05/07 08:43:21;;;;;;;16.80;7.35;;;;;;;19.20;62.23;98469.19;5460182;26;20042;-77
2022/05/07 08:45:48;;;;;;;14.40;7.35;;;;;;;19.45;62.64;98480.50;5460511;26;20086;-77
2022/05/07 08:48:15;;;;;;;16.75;7.60;;;;;;;19.46;62.96;98474.31;5459556;26;20074;-77
2022/05/07 08:50:44;;;;;;;13.57;7.12;;;;;;;19.18;63.42;98473.69;5439171;26;20389;-77
2022/05/07 08:53:11;;;;;;;13.93;7.68;;;;;;;19.00;64.62;98496.75;5459925;26;20046;-76
2022/05/07 08:55:38;;;;;;;16.80;8.18;;;;;;;18.77;65.19;98490.50;5459496;26;20456;-77
2022/05/07 08:58:05;;;;;;;13.10;7.68;;;;;;;19.00;64.79;98491.53;5459714;26;20078;-76
2022/05/07 09:00:33;;;;;;;13.07;8.23;;;;;;;18.59;65.83;98490.91;5459346;26;20107;-77
2022/05/07 09:03:01;;;;;;;13.90;7.50;;;;;;;18.95;64.80;98491.03;5460133;26;20062;-76
2022/05/07 09:05:36;;;;;;;15.40;7.72;;;;;;;18.64;65.56;98486.22;5460927;26;20066;-76
2022/05/07 09:08:05;;;;;;;13.88;6.62;;;;;;;18.47;67.20;98489.97;5460367;26;20059;-77
2022/05/07 09:10:36;;;;;;;17.10;8.38;;;;;;;18.71;65.54;98490.91;5460457;26;20487;-76
2022/05/07 09:13:13;;;;;;;13.20;7.60;;;;;;;18.86;66.03;98485.59;5440347;26;20414;-76
2022/05/07 09:15:55;;;;;;;15.95;8.48;;;;;;;18.97;66.73;98489.12;5460521;26;20109;-77
2022/05/07 09:18:25;;;;;;;14.63;8.55;;;;;;;19.29;66.19;98484.25;5440359;26;20119;-76
2022/05/07 09:23:48;;;;;;;12.63;6.37;;;;;;;19.19;66.07;98477.16;5460544;26;20455;-77
2022/05/07 09:26:26;;;;;;;15.50;7.68;;;;;;;19.53;65.85;98471.16;5440308;26;20079;-77
2022/05/07 09:28:53;;;;;;;13.65;7.97;;;;;;;19.46;67.10;98469.09;5439602;26;20161;-77
2022/05/07 09:31:24;;;;;;;13.90;8.20;;;;;;;19.16;67.00;98467.75;5460955;26;20102;-77
2022/05/07 09:33:52;;;;;;;15.73;7.65;;;;;;;19.43;68.32;98464.09;5460955;26;20042;-77
2022/05/07 09:36:19;;;;;;;15.95;8.30;;;;;;;18.99;66.61;98458.47;5460381;26;20050;-77
2022/05/07 09:38:57;;;;;;;15.93;8.60;;;;;;;18.89;68.06;98459.22;5439947;26;20118;-76
2022/05/07 09:41:24;;;;;;;14.68;7.10;;;;;;;19.04;66.55;98447.69;5460870;26;20328;-77
2022/05/07 09:43:51;;;;;;;15.77;8.13;;;;;;;18.94;67.61;98433.59;5460364;26;20067;-77
2022/05/07 09:46:19;;;;;;;16.90;8.18;;;;;;;18.98;69.06;98438.50;5460648;26;20089;-77
2022/05/07 09:48:47;;;;;;;12.73;7.22;;;;;;;19.43;66.47;98451.00;5440120;26;20051;-77
2022/05/07 09:51:14;;;;;;;14.65;8.02;;;;;;;19.50;65.36;98444.41;5460391;26;20077;-77
2022/05/07 09:59:14;;;;;;;15.05;8.60;;;;;;;19.55;62.11;98471.91;5460551;26;20063;-77
2022/05/07 10:01:55;;;;;;;13.98;6.72;;;;;;;19.99;60.09;98474.84;5440249;26;20061;-77
2022/05/07 10:04:55;;;;;;;13.23;7.25;;;;;;;20.12;60.92;98476.44;5460382;26;20067;-77
2022/05/07 10:07:34;;;;;;;13.02;7.15;;;;;;;20.13;58.38;98482.53;5460679;26;20079;-77
2022/05/07 10:10:04;;;;;;;11.82;5.93;;;;;;;19.86;59.54;98473.12;5439812;26;20110;-77
2022/05/07 10:12:31;;;;;;;13.23;6.28;;;;;;;20.04;60.08;98473.56;5460399;26;20055;-77
2022/05/07 10:15:06;;;;;;;11.52;6.22;;;;;;;19.93;59.80;98474.34;5460587;26;20054;-77
2022/05/07 10:17:34;;;;;;;12.10;5.62;;;;;;;20.18;59.45;98473.34;5440025;26;20067;-77
2022/05/07 10:20:09;;;;;;;12.60;6.22;;;;;;;20.00;55.88;98466.06;5439743;26;20069;-77
2022/05/07 10:22:37;;;;;;;10.70;5.90;;;;;;;19.87;58.49;98456.47;5440304;26;20061;-77
2022/05/07 10:25:06;;;;;;;11.18;6.05;;;;;;;20.16;58.10;98462.16;5460149;26;20110;-77
2022/05/07 10:27:34;;;;;;;10.95;5.30;;;;;;;20.16;57.86;98462.16;5460601;26;20082;-77
2022/05/07 10:30:12;;;;;;;11.43;5.35;;;;;;;20.27;55.48;98456.09;5460574;26;20463;-77
2022/05/07 10:33:01;;;;;;;11.65;5.00;;;;;;;20.69;56.84;98466.91;5460295;26;20105;-77
2022/05/07 10:35:41;;;;;;;12.00;5.90;;;;;;;20.71;56.33;98465.00;5440502;26;20407;-77
2022/05/07 10:38:14;;;;;;;12.13;6.20;;;;;;;20.50;56.47;98464.88;5460497;26;20063;-77
2022/05/07 10:41:07;;;;;;;10.02;5.30;;;;;;;20.76;58.32;98455.00;5439538;26;20070;-77
2022/05/07 10:43:39;;;;;;;11.57;4.57;;;;;;;20.73;57.30;98452.59;5440752;26;20098;-77
2022/05/07 10:46:12;;;;;;;8.45;4.43;;;;;;;20.80;53.66;98462.50;5459989;26;20118;-77
2022/05/07 10:48:47;;;;;;;13.85;4.57;;;;;;;20.98;54.57;98449.75;5460505;26;20336;-77
2022/05/07 10:51:28;;;;;;;9.75;5.00;;;;;;;21.02;51.64;98448.53;5460546;26;20058;-77
2022/05/07 10:54:03;;;;;;;11.15;5.35;;;;;;;20.77;52.91;98454.88;5460118;26;20060;-77
2022/05/07 10:56:34;;;;;;;8.75;3.80;;;;;;;21.21;53.42;98453.16;5460639;26;20106;-77
2022/05/07 10:59:01;;;;;;;10.10;4.95;;;;;;;21.15;52.62;98445.75;5439987;26;20069;-77
2022/05/07 11:01:29;;;;;;;10.07;3.97;;;;;;;21.08;55.49;98450.69;5460175;26;20051;-77
2022/05/07 11:04:07;;;;;;;11.88;5.60;;;;;;;21.34;51.10;98453.03;5440097;26;20408;-77
2022/05/07 11:06:43;;;;;;;11.35;5.05;;;;;;;21.08;51.68;98457.72;5460608;26;20042;-77
2022/05/07 11:09:21;;;;;;;9.57;4.82;;;;;;;20.93;52.20;98461.53;5459945;26;20126;-77
2022/05/07 11:11:51;;;;;;;10.90;4.80;;;;;;;21.40;51.75;98452.56;5460395;26;20414;-77
2022/05/07 11:14:22;;;;;;;10.77;4.47;;;;;;;21.44;49.78;98448.72;5460115;26;20149;-77
2022/05/07 11:16:50;;;;;;;10.95;5.03;;;;;;;21.55;53.06;98447.84;5440309;26;20074;-77
2022/05/07 11:19:31;;;;;;;11.00;4.25;;;;;;;21.35;52.13;98441.59;5439566;26;20117;-77
2022/05/07 11:22:00;;;;;;;10.55;5.15;;;;;;;21.43;51.26;98436.56;5439498;26;20062;-77
2022/05/07 11:24:32;;;;;;;10.52;4.50;;;;;;;21.29;50.21;98449.97;5439967;26;20085;-77
2022/05/07 11:27:02;;;;;;;8.80;4.15;;;;;;;21.70;51.48;98445.78;5459944;26;20087;-77
2022/05/07 11:29:30;;;;;;;11.02;4.68;;;;;;;21.86;50.58;98448.81;5440237;26;20748;-77
2022/05/07 11:31:59;;;;;;;14.63;5.32;;;;;;;21.86;49.35;98441.75;5440958;26;20125;-77
2022/05/07 11:34:33;;;;;;;10.20;4.10;;;;;;;21.74;50.49;98445.41;5460547;26;20089;-77
2022/05/07 11:37:17;;;;;;;8.70;4.45;;;;;;;21.95;49.73;98434.91;5460060;26;20070;-76
2022/05/07 11:39:55;;;;;;;11.50;5.10;;;;;;;21.77;50.94;98439.06;5460166;26;20337;-77
2022/05/07 11:42:31;;;;;;;10.15;4.20;;;;;;;21.81;49.65;98432.59;5460024;26;20059;-78
2022/05/07 11:45:25;;;;;;;9.88;4.43;;;;;;;22.10;48.77;98436.28;5459961;26;20412;-78
2022/05/07 11:47:54;;;;;;;9.30;4.65;;;;;;;22.48;46.45;98435.69;5460269;26;20175;-78
2022/05/07 11:50:25;;;;;;;10.30;4.18;;;;;;;22.79;48.24;98433.06;5459852;26;20103;-78
2022/05/07 11:52:53;;;;;;;9.73;4.43;;;;;;;22.98;47.58;98437.59;5460325;26;20071;-77
2022/05/07 11:55:28;;;;;;;10.73;5.05;;;;;;;22.64;46.59;98435.19;5460278;26;20097;-77
2022/05/07 11:57:56;;;;;;;12.02;5.03;;;;;;;22.73;45.90;98433.56;5459836;26;20062;-78
2022/05/07 12:00:26;;;;;;;14.95;5.25;;;;;;;22.61;45.98;98429.38;5460227;26;20067;-77